Aviation Digital Data Service (ADDS)

Output produced by METARs form (0920 UTC 23 October 2014)
found at http://aviationweather.gov/adds/metars/
 
KDFW 230901Z 2309/2412 14007KT P6SM SCT050 BKN100 BKN200